Time;durP1;ratioP1;P1;durP2;ratioP2;P2;SDS_P1;SDS_P2;PMS_P1;PMS_P2;Temp;Humidity;BMP_temperature;BMP_pressure;BME280_temperature;BME280_humidity;BME280_pressure;Samples;Min_cycle;Max_cycle;Signal;HPM_P1;HPM_P2
2021/12/26 00:00:05;;;;;;;18.75;8.05;;;;;;;-5.92;100.00;98932.05;4383848;79;43991;-74
2021/12/26 00:06:15;;;;;;;22.58;8.40;;;;;;;-6.03;100.00;98929.03;4391838;79;44083;-75
2021/12/26 00:12:16;;;;;;;22.02;8.08;;;;;;;-6.05;100.00;98936.19;4383213;79;43965;-75
2021/12/26 00:18:17;;;;;;;21.77;8.83;;;;;;;-6.27;100.00;98922.72;4384131;79;44041;-75
2021/12/26 00:24:19;;;;;;;24.72;9.30;;;;;;;-6.32;100.00;98921.80;4364009;79;43954;-76
2021/12/26 00:30:22;;;;;;;26.10;10.88;;;;;;;-6.52;100.00;98920.31;4380534;79;43022;-76
2021/12/26 00:36:24;;;;;;;25.12;9.60;;;;;;;-6.39;100.00;98916.23;4357464;79;43969;-76
2021/12/26 00:42:26;;;;;;;26.05;10.65;;;;;;;-6.33;100.00;98921.44;4365928;79;42984;-76
2021/12/26 00:48:27;;;;;;;26.80;10.63;;;;;;;-6.55;100.00;98928.42;4370421;79;43297;-76
2021/12/26 00:54:29;;;;;;;25.40;10.13;;;;;;;-6.58;100.00;98916.91;4370906;79;43236;-76
2021/12/26 01:00:34;;;;;;;29.37;10.20;;;;;;;-6.53;100.00;98919.16;4363397;79;43433;-74
2021/12/26 01:06:36;;;;;;;28.98;10.88;;;;;;;-6.74;100.00;98914.20;4345052;79;43457;-74
2021/12/26 01:12:40;;;;;;;30.12;11.18;;;;;;;-6.68;100.00;98925.14;4362690;79;43478;-75
2021/12/26 01:18:46;;;;;;;27.52;10.70;;;;;;;-6.86;100.00;98924.34;4387792;79;43439;-75
2021/12/26 01:24:56;;;;;;;32.78;12.15;;;;;;;-6.92;100.00;98921.73;4386799;79;43720;-75
2021/12/26 01:30:52;;;;;;;38.33;13.48;;;;;;;-6.87;100.00;98933.14;4374175;79;44511;-75
2021/12/26 01:36:53;;;;;;;34.48;12.93;;;;;;;-7.02;100.00;98917.73;4388534;79;44169;-75
2021/12/26 01:43:15;;;;;;;30.75;13.15;;;;;;;-7.02;100.00;98920.80;4378339;79;43449;-75
2021/12/26 01:49:22;;;;;;;34.23;13.05;;;;;;;-7.04;100.00;98911.77;4387146;79;44132;-75
2021/12/26 01:55:39;;;;;;;30.57;12.15;;;;;;;-7.16;100.00;98910.13;4391021;79;43527;-74
2021/12/26 02:01:28;;;;;;;31.73;11.83;;;;;;;-7.14;100.00;98907.76;4366074;79;28522;-74
2021/12/26 02:07:30;;;;;;;33.48;11.73;;;;;;;-7.26;100.00;98906.11;4394718;79;44099;-75
2021/12/26 02:13:37;;;;;;;32.70;12.47;;;;;;;-7.19;100.00;98916.91;4398173;79;44136;-74
2021/12/26 02:19:40;;;;;;;34.08;13.20;;;;;;;-7.52;100.00;98906.83;4287394;80;44142;-75
2021/12/26 02:31:59;;;;;;;35.03;13.25;;;;;;;-7.42;100.00;98906.48;4302522;80;45025;-74
2021/12/26 02:38:01;;;;;;;39.40;15.03;;;;;;;-7.50;100.00;98906.23;4305537;80;44469;-75
2021/12/26 02:44:04;;;;;;;44.58;15.25;;;;;;;-7.57;100.00;98920.24;4312331;80;44475;-75
2021/12/26 02:50:15;;;;;;;26.43;10.77;;;;;;;-7.78;100.00;98917.02;4309526;80;28525;-76
2021/12/26 02:56:18;;;;;;;37.08;13.60;;;;;;;-7.68;100.00;98905.38;4318055;80;44494;-76
2021/12/26 03:02:20;;;;;;;43.45;15.53;;;;;;;-7.74;100.00;98898.85;4321646;80;44452;-75
2021/12/26 03:08:21;;;;;;;34.40;12.93;;;;;;;-7.88;100.00;98903.81;4318312;80;44127;-76
2021/12/26 03:14:23;;;;;;;42.03;14.68;;;;;;;-7.82;100.00;98906.92;4317451;80;44557;-75
2021/12/26 03:20:31;;;;;;;40.28;14.73;;;;;;;-7.75;100.00;98906.83;4439559;79;44476;-73
2021/12/26 03:26:32;;;;;;;43.05;16.20;;;;;;;-7.66;100.00;98915.23;4411001;79;44473;-74
2021/12/26 03:32:35;;;;;;;44.25;14.63;;;;;;;-7.74;100.00;98918.44;4424464;79;44468;-75
2021/12/26 03:38:37;;;;;;;44.63;15.78;;;;;;;-7.68;100.00;98925.45;4409640;79;43677;-75
2021/12/26 03:44:50;;;;;;;50.25;18.67;;;;;;;-7.69;100.00;98927.22;4405654;79;43784;-75
2021/12/26 03:50:53;;;;;;;38.30;14.73;;;;;;;-7.68;100.00;98922.84;4405281;78;44510;-74
2021/12/26 03:56:54;;;;;;;41.45;15.75;;;;;;;-7.69;100.00;98927.22;4411707;79;44525;-74
2021/12/26 04:02:58;;;;;;;45.40;16.48;;;;;;;-7.63;100.00;98924.16;4404014;79;43730;-74
2021/12/26 04:08:59;;;;;;;43.73;16.30;;;;;;;-7.77;100.00;98936.11;4387485;79;44418;-75
2021/12/26 04:15:06;;;;;;;42.30;16.42;;;;;;;-7.78;100.00;98939.20;4409661;79;44431;-74
2021/12/26 04:21:08;;;;;;;40.43;15.38;;;;;;;-7.79;100.00;98948.45;4367697;79;44488;-75
2021/12/26 04:27:11;;;;;;;43.15;14.63;;;;;;;-7.89;100.00;98954.36;4360227;79;44479;-74
2021/12/26 04:33:12;;;;;;;44.85;16.15;;;;;;;-7.83;100.00;98956.98;4365499;79;44508;-76
2021/12/26 04:39:15;;;;;;;52.10;17.37;;;;;;;-7.97;100.00;98972.36;4358161;79;34238;-75
2021/12/26 04:45:17;;;;;;;46.08;18.70;;;;;;;-7.93;100.00;98967.29;4351131;79;43736;-74
2021/12/26 04:51:23;;;;;;;40.35;16.90;;;;;;;-8.05;100.00;98971.63;4323500;79;44438;-75
2021/12/26 04:57:28;;;;;;;47.93;16.65;;;;;;;-7.98;100.00;98978.52;4369938;79;43856;-76
2021/12/26 05:03:30;;;;;;;49.60;17.90;;;;;;;-7.90;100.00;98978.80;4374202;79;43851;-75
2021/12/26 05:09:32;;;;;;;53.65;18.27;;;;;;;-8.05;100.00;98986.47;4372559;79;44120;-75
2021/12/26 05:15:33;;;;;;;67.10;22.22;;;;;;;-7.94;100.00;98986.97;4359998;79;43982;-74
2021/12/26 05:21:35;;;;;;;49.27;19.25;;;;;;;-7.76;100.00;98982.99;4370627;79;43753;-75
2021/12/26 05:27:38;;;;;;;65.15;23.92;;;;;;;-7.89;100.00;98978.34;4364224;79;43756;-76
2021/12/26 05:33:39;;;;;;;52.33;19.45;;;;;;;-7.52;100.00;98977.34;4358463;79;44019;-75
2021/12/26 05:39:42;;;;;;;58.05;21.17;;;;;;;-7.75;100.00;98972.91;4357589;79;44207;-74
2021/12/26 05:45:44;;;;;;;54.98;19.52;;;;;;;-8.02;100.00;98974.03;4360195;79;44148;-75
2021/12/26 05:51:47;;;;;;;53.92;17.98;;;;;;;-7.98;100.00;98972.84;4364678;79;44090;-74
2021/12/26 05:57:56;;;;;;;53.10;19.77;;;;;;;-8.16;100.00;98975.05;4371823;79;44087;-74
2021/12/26 06:03:58;;;;;;;55.48;18.85;;;;;;;-8.34;100.00;98968.56;4360995;80;44101;-76
2021/12/26 06:10:00;;;;;;;47.08;17.42;;;;;;;-8.30;100.00;98971.30;4361528;79;43806;-76
2021/12/26 06:16:01;;;;;;;48.28;18.00;;;;;;;-8.51;100.00;98976.34;4370088;79;43789;-74
2021/12/26 06:22:04;;;;;;;51.75;19.02;;;;;;;-8.40;100.00;98986.79;4353482;79;43933;-75
2021/12/26 06:28:25;;;;;;;52.80;18.30;;;;;;;-8.59;100.00;98989.90;4351208;79;44131;-75
2021/12/26 06:34:45;;;;;;;51.45;19.27;;;;;;;-8.45;100.00;98987.58;4358814;80;46658;-76
2021/12/26 06:41:07;;;;;;;55.60;18.67;;;;;;;-8.50;100.00;98996.25;4359033;79;47982;-76
2021/12/26 06:47:26;;;;;;;49.50;18.55;;;;;;;-8.59;100.00;98992.05;4358837;79;43787;-75
2021/12/26 06:53:28;;;;;;;51.05;19.30;;;;;;;-8.43;100.00;99001.36;4358401;79;44025;-76
2021/12/26 06:59:30;;;;;;;55.38;21.00;;;;;;;-8.37;100.00;99002.20;4355977;79;44115;-77
2021/12/26 07:05:32;;;;;;;45.63;17.85;;;;;;;-8.00;100.00;99003.91;4367478;79;43791;-77
2021/12/26 07:11:38;;;;;;;55.48;19.10;;;;;;;-8.13;100.00;99020.47;4370053;79;44108;-75
2021/12/26 07:17:41;;;;;;;48.68;19.45;;;;;;;-8.00;100.00;99008.67;4305812;80;43809;-75
2021/12/26 07:23:44;;;;;;;55.33;20.02;;;;;;;-8.17;100.00;99021.65;4228265;82;44108;-74
2021/12/26 07:29:47;;;;;;;49.27;18.60;;;;;;;-7.90;100.00;99028.88;4225995;82;28497;-74
2021/12/26 07:35:49;;;;;;;48.42;18.05;;;;;;;-7.79;100.00;99042.42;4234335;82;43752;-75
2021/12/26 07:41:55;;;;;;;49.33;18.10;;;;;;;-7.66;100.00;99037.95;4215555;82;47599;-77
2021/12/26 07:48:15;;;;;;;48.80;18.30;;;;;;;-7.60;100.00;99036.66;4302366;80;43774;-76
2021/12/26 07:54:17;;;;;;;54.70;20.17;;;;;;;-7.37;100.00;99053.22;4304500;80;44081;-74
2021/12/26 08:00:37;;;;;;;52.70;19.40;;;;;;;-7.34;100.00;99057.39;4301734;80;44193;-74
2021/12/26 08:06:41;;;;;;;61.70;21.95;;;;;;;-7.21;100.00;99056.81;4310642;80;44645;-75
2021/12/26 08:12:42;;;;;;;65.00;23.15;;;;;;;-7.18;100.00;99060.98;4301466;80;43793;-74
2021/12/26 08:18:44;;;;;;;58.00;21.10;;;;;;;-6.99;100.00;99059.09;4308321;80;44163;-75
2021/12/26 08:24:45;;;;;;;68.28;24.25;;;;;;;-6.83;100.00;99054.00;4389748;79;43842;-75
2021/12/26 08:30:47;;;;;;;59.05;23.27;;;;;;;-6.73;100.00;99058.88;4389503;79;44152;-75
2021/12/26 08:37:01;;;;;;;67.37;25.12;;;;;;;-6.22;100.00;99065.33;4401357;79;43776;-74
2021/12/26 08:43:02;;;;;;;65.28;25.17;;;;;;;-6.48;100.00;99068.71;4378893;79;43815;-74
2021/12/26 08:49:04;;;;;;;67.25;25.20;;;;;;;-6.20;100.00;99064.73;4390339;79;43787;-75
2021/12/26 08:55:07;;;;;;;67.20;25.88;;;;;;;-6.05;100.00;99068.40;4400356;79;43324;-71
2021/12/26 09:01:10;;;;;;;71.10;26.25;;;;;;;-6.25;100.00;99062.97;4393665;79;43963;-75
2021/12/26 09:07:12;;;;;;;65.72;25.12;;;;;;;-6.22;100.00;99061.91;4392976;79;43825;-75
2021/12/26 09:13:15;;;;;;;63.98;23.90;;;;;;;-5.94;100.00;99053.92;4386094;79;43761;-76
2021/12/26 09:19:17;;;;;;;58.38;24.63;;;;;;;-5.18;100.00;99054.27;4358624;78;44177;-76
2021/12/26 09:25:19;;;;;;;56.37;22.32;;;;;;;-5.27;100.00;99054.19;4354896;79;44100;-75
2021/12/26 09:31:20;;;;;;;52.35;21.57;;;;;;;-5.38;100.00;99050.67;4363636;79;44139;-75
2021/12/26 09:37:21;;;;;;;47.55;19.65;;;;;;;-5.58;100.00;99041.02;4373814;79;43804;-75
2021/12/26 09:43:23;;;;;;;41.53;19.23;;;;;;;-5.48;100.00;99037.99;4373735;79;44456;-76
2021/12/26 09:49:24;;;;;;;46.40;19.80;;;;;;;-5.22;100.00;99038.92;4280931;81;43775;-76
2021/12/26 09:55:28;;;;;;;44.08;19.62;;;;;;;-5.49;100.00;99032.41;4368777;79;43813;-75
2021/12/26 10:01:47;;;;;;;32.85;13.80;;;;;;;-5.08;100.00;99028.09;4367205;79;44098;-75
2021/12/26 10:07:52;;;;;;;47.17;17.37;;;;;;;-4.66;100.00;99028.47;4360405;79;43780;-75
2021/12/26 10:13:59;;;;;;;44.03;17.70;;;;;;;-4.71;100.00;99029.84;4348808;79;43707;-75
2021/12/26 10:20:09;;;;;;;39.08;16.80;;;;;;;-4.70;100.00;99029.68;4348589;79;44518;-77
2021/12/26 10:26:24;;;;;;;39.88;15.05;;;;;;;-4.66;100.00;99030.25;4372980;79;44573;-76
2021/12/26 10:32:33;;;;;;;43.05;18.27;;;;;;;-4.75;100.00;99025.33;4354293;79;43594;-73
2021/12/26 10:38:35;;;;;;;38.30;16.57;;;;;;;-4.41;100.00;99026.31;4363855;79;44501;-72
2021/12/26 10:44:42;;;;;;;38.98;16.02;;;;;;;-4.53;100.00;99022.99;4368817;79;44470;-72
2021/12/26 10:50:46;;;;;;;35.08;15.00;;;;;;;-4.16;100.00;99018.91;4360858;79;44468;-74
2021/12/26 10:57:14;;;;;;;37.78;14.85;;;;;;;-3.97;100.00;99011.99;4356299;79;44534;-74
2021/12/26 11:03:29;;;;;;;37.50;15.30;;;;;;;-3.76;100.00;99019.74;4362935;79;44498;-74
2021/12/26 11:09:31;;;;;;;31.62;13.38;;;;;;;-3.60;100.00;99013.92;4370349;79;44123;-75
2021/12/26 11:15:37;;;;;;;29.90;12.82;;;;;;;-3.52;100.00;99015.37;4359050;79;43421;-74
2021/12/26 11:21:38;;;;;;;29.67;11.80;;;;;;;-3.58;100.00;99017.23;4383272;79;43474;-74
2021/12/26 11:27:40;;;;;;;34.43;13.75;;;;;;;-3.65;100.00;99016.97;4381942;79;44192;-74
2021/12/26 11:33:41;;;;;;;36.38;14.10;;;;;;;-3.50;100.00;99008.64;4403424;79;44452;-73
2021/12/26 11:39:45;;;;;;;32.05;14.20;;;;;;;-3.54;100.00;99005.48;4376165;79;44129;-72
2021/12/26 11:46:32;;;;;;;41.60;15.72;;;;;;;-3.78;100.00;98996.73;4387930;79;44470;-74
2021/12/26 11:53:12;;;;;;;39.33;16.37;;;;;;;-3.78;100.00;99004.61;4402183;79;44491;-73
2021/12/26 11:59:47;;;;;;;39.73;16.10;;;;;;;-3.79;100.00;99009.52;4378733;79;44482;-71
2021/12/26 12:05:48;;;;;;;38.08;15.93;;;;;;;-3.36;100.00;98996.85;4388679;79;44507;-75
2021/12/26 12:11:59;;;;;;;36.30;15.25;;;;;;;-3.30;100.00;99000.71;4376269;79;44457;-76
2021/12/26 12:18:14;;;;;;;36.17;15.35;;;;;;;-3.50;100.00;98996.34;4372171;79;44456;-76
2021/12/26 12:24:29;;;;;;;22.77;10.75;;;;;;;-3.56;100.00;98993.45;4271293;81;28629;-75
2021/12/26 12:30:46;;;;;;;33.35;13.68;;;;;;;-3.46;100.00;98986.84;4130429;84;44149;-75
2021/12/26 12:36:48;;;;;;;29.57;11.95;;;;;;;-3.62;100.00;98976.45;4152992;83;43411;-76
2021/12/26 12:43:11;;;;;;;35.65;13.40;;;;;;;-3.46;100.00;98991.62;4148486;83;44490;-77
2021/12/26 12:49:12;;;;;;;29.25;12.07;;;;;;;-3.78;100.00;98989.66;4145388;83;43443;-75
2021/12/26 12:55:22;;;;;;;29.02;12.18;;;;;;;-3.56;100.00;98982.94;4161146;83;43449;-71
2021/12/26 13:01:46;;;;;;;29.57;11.20;;;;;;;-3.66;100.00;98981.15;4137081;83;43459;-76
2021/12/26 13:07:51;;;;;;;34.83;13.28;;;;;;;-3.53;100.00;98984.80;4130563;83;28519;-78
2021/12/26 13:13:56;;;;;;;30.40;12.65;;;;;;;-3.46;100.00;98986.38;4124463;84;28468;-77
2021/12/26 13:20:01;;;;;;;27.93;13.03;;;;;;;-3.15;100.00;98980.89;4105792;84;43446;-75
2021/12/26 13:26:10;;;;;;;29.00;12.13;;;;;;;-3.19;100.00;98988.70;4145423;83;43435;-76
2021/12/26 13:32:12;;;;;;;29.20;11.90;;;;;;;-3.26;100.00;98985.82;4140430;83;43464;-76
2021/12/26 13:38:13;;;;;;;28.07;12.37;;;;;;;-3.34;100.00;98999.34;4146574;84;43670;-77
2021/12/26 13:44:17;;;;;;;26.95;12.07;;;;;;;-3.28;100.00;99002.23;4127039;84;43367;-75
2021/12/26 13:50:18;;;;;;;32.25;13.05;;;;;;;-3.44;100.00;99012.03;4142725;84;44118;-76
2021/12/26 13:56:21;;;;;;;33.08;12.88;;;;;;;-3.31;100.00;99010.41;4186507;83;44126;-76
2021/12/26 14:02:32;;;;;;;32.78;12.47;;;;;;;-3.23;100.00;99026.32;4088003;85;44061;-75
2021/12/26 14:08:34;;;;;;;29.52;12.43;;;;;;;-3.54;100.00;99021.73;4166515;83;43403;-76
2021/12/26 14:14:39;;;;;;;27.45;11.75;;;;;;;-3.57;100.00;99024.64;4094849;85;43447;-76
2021/12/26 14:20:59;;;;;;;;;;;;;;;-3.80;100.00;99026.23;4166537;83;28552;-77
2021/12/26 14:27:01;;;;;;;31.57;12.70;;;;;;;-3.57;100.00;99027.27;4148033;83;43822;-76
2021/12/26 14:33:02;;;;;;;31.25;12.35;;;;;;;-3.71;100.00;99018.83;4098732;85;43453;-72
2021/12/26 14:39:05;;;;;;;30.48;13.38;;;;;;;-3.94;100.00;99017.80;4029105;86;43592;-76
2021/12/26 14:45:14;;;;;;;30.60;12.68;;;;;;;-4.05;100.00;99024.50;4052940;86;43487;-74
2021/12/26 14:51:18;;;;;;;36.23;13.83;;;;;;;-4.14;100.00;99017.45;4044034;86;44481;-74
2021/12/26 14:57:31;;;;;;;32.48;13.38;;;;;;;-4.23;100.00;99020.42;4086860;85;44143;-73
2021/12/26 15:03:34;;;;;;;33.88;14.13;;;;;;;-4.19;100.00;99033.61;4032306;86;44127;-75
2021/12/26 15:09:51;;;;;;;33.58;13.48;;;;;;;-4.05;100.00;99017.94;4054903;86;44201;-75
2021/12/26 15:15:53;;;;;;;38.95;14.23;;;;;;;-4.26;100.00;99032.52;4076480;85;44466;-73
2021/12/26 15:22:05;;;;;;;33.55;14.07;;;;;;;-4.39;100.00;99034.06;4081371;85;44297;-72
2021/12/26 15:28:14;;;;;;;37.17;15.68;;;;;;;-4.31;100.00;99038.64;4097732;85;44521;-74
2021/12/26 15:34:15;;;;;;;38.65;15.13;;;;;;;-4.46;100.00;99042.13;4153517;83;44476;-73
2021/12/26 15:40:18;;;;;;;35.73;15.85;;;;;;;-4.31;100.00;99055.70;4143064;83;44550;-74
2021/12/26 15:46:21;;;;;;;32.98;15.15;;;;;;;-4.43;100.00;99047.09;4171182;83;44222;-74
2021/12/26 15:52:22;;;;;;;36.68;14.33;;;;;;;-4.51;100.00;99042.05;4143167;83;44491;-74
2021/12/26 15:58:24;;;;;;;44.70;15.68;;;;;;;-4.81;100.00;99050.30;4152174;83;44459;-74
2021/12/26 16:04:25;;;;;;;42.03;16.97;;;;;;;-4.87;100.00;99053.44;4159659;83;44475;-74
2021/12/26 16:10:28;;;;;;;42.00;18.12;;;;;;;-4.76;100.00;99053.34;4154132;83;43766;-75
2021/12/26 16:16:29;;;;;;;42.98;17.57;;;;;;;-5.01;100.00;99052.48;4167954;83;44522;-74
2021/12/26 16:22:30;;;;;;;48.55;20.80;;;;;;;-5.01;100.00;99052.48;4150454;83;43863;-73
2021/12/26 16:28:31;;;;;;;51.10;20.20;;;;;;;-5.15;100.00;99059.73;4167775;83;44037;-74
2021/12/26 16:34:34;;;;;;;51.42;19.80;;;;;;;-4.86;100.00;99070.83;4133935;85;43956;-74
2021/12/26 16:40:36;;;;;;;58.28;23.07;;;;;;;-5.11;100.00;99072.92;4080723;85;44176;-74
2021/12/26 16:46:37;;;;;;;59.48;23.52;;;;;;;-5.30;100.00;99068.88;4116271;85;44133;-74
2021/12/26 16:52:39;;;;;;;56.68;21.85;;;;;;;-5.38;100.00;99060.34;4148581;85;44147;-73
2021/12/26 16:58:41;;;;;;;56.40;23.32;;;;;;;-5.35;100.00;99071.87;4140908;85;44133;-74
2021/12/26 17:04:42;;;;;;;58.98;23.00;;;;;;;-5.45;100.00;99069.20;4110819;85;44114;-75
2021/12/26 17:10:43;;;;;;;55.70;22.45;;;;;;;-5.29;100.00;99062.20;4146310;85;44131;-73
2021/12/26 17:16:45;;;;;;;64.25;22.75;;;;;;;-5.50;100.00;99072.66;4105363;85;43710;-73
2021/12/26 17:22:46;;;;;;;58.20;21.75;;;;;;;-5.56;100.00;99061.41;4207963;84;44115;-73
2021/12/26 17:28:47;;;;;;;61.98;23.50;;;;;;;-5.40;100.00;99077.50;4109565;85;44494;-74
2021/12/26 17:34:49;;;;;;;58.35;23.55;;;;;;;-5.56;100.00;99075.31;4164394;85;44162;-76
2021/12/26 17:40:50;;;;;;;58.30;22.37;;;;;;;-5.46;100.00;99078.02;4127398;84;44126;-73
2021/12/26 17:46:51;;;;;;;53.28;21.57;;;;;;;-5.72;100.00;99080.98;4132258;84;44109;-74
2021/12/26 17:52:53;;;;;;;61.85;23.60;;;;;;;-5.76;100.00;99078.27;4113986;84;44449;-75
2021/12/26 17:58:56;;;;;;;57.75;23.10;;;;;;;-5.65;100.00;99076.07;4160128;84;44102;-74
2021/12/26 18:04:59;;;;;;;53.20;22.07;;;;;;;-5.82;100.00;99075.67;4113917;84;44154;-74
2021/12/26 18:11:00;;;;;;;54.45;20.65;;;;;;;-5.78;100.00;99077.54;4176781;84;44168;-74
2021/12/26 18:17:02;;;;;;;58.50;21.50;;;;;;;-5.95;100.00;99074.98;4151347;84;44244;-73
2021/12/26 18:23:06;;;;;;;62.93;23.57;;;;;;;-5.96;100.00;99081.18;4162085;84;44161;-73
2021/12/26 18:29:07;;;;;;;59.63;23.60;;;;;;;-5.78;100.00;99077.54;4110415;85;28516;-74
2021/12/26 18:35:09;;;;;;;61.02;23.05;;;;;;;-5.78;100.00;99078.39;4116624;85;44500;-74
2021/12/26 18:41:11;;;;;;;60.45;23.77;;;;;;;-5.86;100.00;99070.81;4120140;84;44654;-74
2021/12/26 18:47:14;;;;;;;63.63;24.43;;;;;;;-6.14;100.00;99076.52;4165868;83;44256;-74
2021/12/26 18:53:17;;;;;;;61.53;21.30;;;;;;;-5.90;100.00;99067.61;4148637;83;44511;-73
2021/12/26 18:59:19;;;;;;;58.83;22.67;;;;;;;-5.97;100.00;99073.82;4186704;83;44133;-74
2021/12/26 19:05:26;;;;;;;64.75;24.00;;;;;;;-6.18;100.00;99072.00;4162526;83;43755;-74
2021/12/26 19:11:27;;;;;;;62.17;23.77;;;;;;;-6.33;100.00;99070.13;4183916;83;43493;-73
2021/12/26 19:17:29;;;;;;;61.48;24.40;;;;;;;-6.32;100.00;99061.32;4181223;83;44245;-74
2021/12/26 19:23:30;;;;;;;67.12;25.80;;;;;;;-6.70;100.00;99069.09;4207008;83;42935;-73
2021/12/26 19:29:36;;;;;;;65.78;25.23;;;;;;;-6.50;100.00;99066.23;4198405;83;43736;-75
2021/12/26 19:35:36;;;;;;;68.75;26.70;;;;;;;-6.62;100.00;99066.71;4158754;83;43593;-73
2021/12/26 19:41:41;;;;;;;63.20;24.05;;;;;;;-6.73;100.00;99073.25;4122427;83;43775;-74
2021/12/26 19:47:45;;;;;;;62.62;23.18;;;;;;;-6.66;100.00;99070.53;4109868;85;44468;-74
2021/12/26 19:53:46;;;;;;;56.58;23.80;;;;;;;-6.67;100.00;99080.61;4190716;83;44130;-74
2021/12/26 19:59:48;;;;;;;62.53;24.15;;;;;;;-6.69;100.00;99075.16;4172145;83;43246;-74
2021/12/26 20:05:50;;;;;;;68.10;24.50;;;;;;;-7.03;100.00;99078.13;4171822;83;43845;-73
2021/12/26 20:11:52;;;;;;;61.10;24.37;;;;;;;-6.96;100.00;99078.48;4109404;85;44124;-74
2021/12/26 20:17:54;;;;;;;54.45;22.50;;;;;;;-7.10;100.00;99070.84;4137931;85;44124;-73
2021/12/26 20:23:57;;;;;;;61.48;23.85;;;;;;;-7.09;100.00;99073.81;4143675;85;44359;-74
2021/12/26 20:29:58;;;;;;;64.80;26.50;;;;;;;-7.00;100.00;99078.34;4138599;84;43247;-74
2021/12/26 20:36:00;;;;;;;70.55;26.07;;;;;;;-7.12;100.00;99076.20;4192744;83;43633;-76
2021/12/26 20:42:01;;;;;;;73.28;27.35;;;;;;;-6.78;100.00;99068.84;4140402;84;44134;-77
2021/12/26 20:48:03;;;;;;;69.07;27.25;;;;;;;-7.21;100.00;99061.22;4171358;83;44120;-75
2021/12/26 20:54:05;;;;;;;71.10;27.00;;;;;;;-7.24;100.00;99058.82;4185348;84;44106;-74
2021/12/26 21:00:09;;;;;;;71.72;27.77;;;;;;;-7.37;100.00;99062.37;4122602;84;44138;-78
2021/12/26 21:06:10;;;;;;;71.15;26.37;;;;;;;-7.25;100.00;99067.61;4144370;84;43807;-74
2021/12/26 21:12:11;;;;;;;71.02;27.17;;;;;;;-7.21;100.00;99070.37;4081336;85;44514;-75
2021/12/26 21:18:13;;;;;;;75.00;28.80;;;;;;;-7.01;100.00;99067.53;4118933;85;44073;-74
2021/12/26 21:24:14;;;;;;;73.45;26.23;;;;;;;-7.12;100.00;99073.59;4106976;85;43997;-73
2021/12/26 21:30:15;;;;;;;64.82;25.75;;;;;;;-7.06;100.00;99074.91;4087691;85;42905;-74
2021/12/26 21:36:20;;;;;;;68.07;26.02;;;;;;;-7.17;100.00;99066.10;4099486;85;43384;-76
2021/12/26 21:42:21;;;;;;;68.10;26.33;;;;;;;-7.51;100.00;99067.80;4084848;85;28532;-74
2021/12/26 21:48:24;;;;;;;73.25;27.27;;;;;;;-7.49;100.00;99065.91;4074573;85;44198;-76
2021/12/26 21:54:27;;;;;;;67.70;26.02;;;;;;;-7.60;100.00;99067.53;4109512;84;43444;-74
2021/12/26 22:00:35;;;;;;;72.25;28.07;;;;;;;-7.63;100.00;99067.77;4107122;85;44380;-74
2021/12/26 22:06:36;;;;;;;74.97;25.97;;;;;;;-7.63;100.00;99065.62;4107094;85;44041;-74
2021/12/26 22:12:39;;;;;;;74.60;27.42;;;;;;;-7.76;100.00;99064.38;4124456;85;44220;-79
2021/12/26 22:18:40;;;;;;;71.82;26.68;;;;;;;-7.59;100.00;99070.50;4149896;84;43977;-75
2021/12/26 22:24:42;;;;;;;75.75;28.42;;;;;;;-7.75;100.00;99060.85;4140132;85;44100;-77
2021/12/26 22:30:43;;;;;;;81.32;28.07;;;;;;;-7.71;100.00;99059.67;4165082;84;43719;-77
2021/12/26 22:36:45;;;;;;;70.32;27.48;;;;;;;-7.71;100.00;99053.95;4192016;83;44150;-75
2021/12/26 22:42:48;;;;;;;75.75;28.50;;;;;;;-7.62;100.00;99055.07;4170766;83;44137;-75
2021/12/26 22:48:49;;;;;;;75.87;27.95;;;;;;;-7.72;100.00;99050.17;4199522;83;44143;-76
2021/12/26 22:54:53;;;;;;;77.20;28.23;;;;;;;-7.92;100.00;99040.72;4218273;83;44114;-75
2021/12/26 23:01:00;;;;;;;78.90;30.70;;;;;;;-7.91;100.00;99035.86;4139290;83;43808;-75
2021/12/26 23:07:01;;;;;;;80.22;29.35;;;;;;;-7.96;100.00;99029.31;4189320;83;43760;-75
2021/12/26 23:13:02;;;;;;;78.17;30.32;;;;;;;-7.89;100.00;99027.44;4180085;83;43707;-76
2021/12/26 23:19:07;;;;;;;87.00;31.68;;;;;;;-7.83;100.00;99030.06;4175069;83;43433;-74
2021/12/26 23:25:07;;;;;;;74.07;28.67;;;;;;;-7.98;100.00;99022.89;4218016;83;44107;-74
2021/12/26 23:31:09;;;;;;;78.87;29.60;;;;;;;-7.82;100.00;99020.47;4196358;83;43772;-74
2021/12/26 23:37:10;;;;;;;81.28;30.85;;;;;;;-8.10;100.00;99029.02;4182254;84;43750;-74
2021/12/26 23:43:17;;;;;;;95.35;34.67;;;;;;;-7.79;100.00;99013.70;4174954;83;44147;-75
2021/12/26 23:49:18;;;;;;;93.22;32.55;;;;;;;-7.88;100.00;99013.44;4154093;84;48061;-75
2021/12/26 23:55:19;;;;;;;88.92;31.75;;;;;;;-7.75;100.00;99012.55;4169592;83;43751;-75
